Hauptseite
METAR-TAF:

METAR-TAF

Flughäfen :

Resolute, Nunavut, Kanada

Flughafen Resolute Bay

Breite: 74-43N, Länge: 094-59W, Höhe: 67 m

Beobachtung

Neuester Wetterbericht von vor 17 Minuten, um 06:00 UTC
Wind 8 kt aus Nord/Nordwest
Temperatur -34°C
Luftfeuchtigkeit 67%
Luftdruck 1008 hPa
Sichtweite: 24.1 km
Himmel klar
Eisnadeln

METAR: CYRB 230600Z 34008KT 15SM IC SKC M34/M38 A2977 RMK SLP096

Zeit: 01:17 (06:17 UTC)

Prognose

Neuester Wetterbericht von vor 39 Minuten, um 05:38 UTC
Gültige Prognose vom 23 um 06 UTC bis 24 um 06 UTC
Wind 8 kt aus Nordwest
Sichtweite: 10 km
Himmel klar
Eisnadeln
Übergehend zu
vom 23 um 08 UTC bis 23 um 10 UTC
Wind 12 kt aus Nord/Nordwest

TAF: CYRB 230538Z 2306/2406 32008KT P6SM IC SKC BECMG 2308/2310 34012KT RMK NXT FCST BY 231200Z

Wetterbeobachtungen und Prognosen von mehr als 4000 Flughäfen (METAR und TAF Bericht).

Die verfügbaren Stationen werden durch gelbe und rote Markierungen auf der Karte dargestellt.

Führen Sie die Maus auf sie, um den Namen der Station zu sehen.

Darauf klicken, um die Beobachtung von Wetterbeobachtungen und Prognosen zu sehen.

Um die Karte zu ändern : klicken Sie auf den grünen Tasten mit einem schwarzen Kreuz Zum Vergrößern, auf den grünen Button mit einem Gedankenstrich zu verkleinern, oder auf die grünen Pfeile für benachbarte Karten.


METAR-TAF: